Time;durP1;ratioP1;P1;durP2;ratioP2;P2;SDS_P1;SDS_P2;PMS_P1;PMS_P2;Temp;Humidity;BMP_temperature;BMP_pressure;BME280_temperature;BME280_humidity;BME280_pressure;Samples;Min_cycle;Max_cycle;Signal;HPM_P1;HPM_P2
2023/07/07 00:01:09;;;;;;;4.30;3.20;;;17.50;93.30;;;17.18;62.06;101413.06;5033255;28;20222;-75
2023/07/07 00:03:41;;;;;;;9.47;3.40;;;17.40;93.30;;;17.13;61.90;101410.06;5032829;28;20301;-75
2023/07/07 00:06:13;;;;;;;3.73;3.40;;;17.50;93.30;;;17.06;62.84;101404.56;5033137;28;20304;-75
2023/07/07 00:08:45;;;;;;;6.03;3.10;;;17.30;93.50;;;17.05;62.58;101410.19;5032855;28;20628;-75
2023/07/07 00:11:16;;;;;;;3.87;3.10;;;17.30;93.60;;;16.93;62.46;101404.38;5033183;28;20223;-75
2023/07/07 00:13:54;;;;;;;3.37;3.00;;;17.20;93.90;;;16.86;62.63;101411.56;5033134;28;20197;-75
2023/07/07 00:16:28;;;;;;;3.40;3.07;;;17.10;94.10;;;16.81;62.75;101418.56;5033076;28;20191;-75
2023/07/07 00:19:02;;;;;;;5.77;3.13;;;17.00;94.20;;;16.73;63.01;101414.91;5033039;28;20195;-75
2023/07/07 00:21:34;;;;;;;4.40;3.50;;;16.90;94.20;;;16.70;63.01;101412.56;5032737;28;20226;-75
2023/07/07 00:24:08;;;;;;;6.10;3.40;;;16.90;94.20;;;16.69;63.46;101413.59;5032563;28;20217;-75
2023/07/07 00:26:40;;;;;;;4.63;3.40;;;16.90;94.20;;;16.61;63.34;101410.94;5032975;28;20269;-75
2023/07/07 00:29:13;;;;;;;4.33;3.37;;;16.90;94.50;;;16.60;63.22;101417.41;5032644;28;20195;-75
2023/07/07 00:31:45;;;;;;;4.60;3.17;;;16.80;94.40;;;16.54;63.88;101411.88;5032944;28;20200;-75
2023/07/07 00:34:17;;;;;;;3.63;3.13;;;16.80;94.60;;;16.52;64.37;101414.72;5032630;28;20218;-75
2023/07/07 00:36:49;;;;;;;4.07;3.30;;;16.70;94.90;;;16.50;64.02;101419.50;5035005;28;20278;-75
2023/07/07 00:39:21;;;;;;;3.60;3.30;;;16.80;94.70;;;16.42;64.84;101413.31;5036630;28;20291;-75
2023/07/07 00:41:53;;;;;;;5.63;2.97;;;16.60;94.90;;;16.34;64.84;101419.59;5036258;28;20245;-75
2023/07/07 00:44:50;;;;;;;4.60;3.10;;;16.50;95.50;;;16.26;64.50;101425.09;5036478;28;20577;-75
2023/07/07 00:47:22;;;;;;;4.07;3.03;;;16.40;95.60;;;16.17;64.71;101426.16;5035959;28;20242;-75
2023/07/07 00:49:54;;;;;;;7.50;3.27;;;16.40;95.60;;;16.15;64.90;101430.91;5036427;28;20195;-75
2023/07/07 00:52:26;;;;;;;4.93;3.83;;;16.40;95.50;;;16.26;65.12;101424.25;5036431;28;20196;-75
2023/07/07 00:54:58;;;;;;;4.10;3.13;;;16.50;95.80;;;16.24;64.44;101435.22;5036299;28;20314;-75
2023/07/07 00:57:30;;;;;;;5.90;3.60;;;16.50;95.60;;;16.05;65.84;101430.31;5036595;28;20285;-75
2023/07/07 01:00:03;;;;;;;5.47;3.47;;;16.30;95.60;;;16.03;65.20;101435.88;5035934;28;20206;-75
2023/07/07 01:02:35;;;;;;;5.87;3.03;;;16.30;96.00;;;16.04;65.51;101434.88;5036123;28;20242;-75
2023/07/07 01:05:09;;;;;;;3.80;3.10;;;16.30;96.40;;;15.95;65.71;101435.09;5036099;28;20231;-75
2023/07/07 01:07:51;;;;;;;4.97;3.17;;;16.20;96.10;;;15.87;66.26;101435.97;5035726;28;20281;-75
2023/07/07 01:10:23;;;;;;;8.07;3.53;;;16.10;96.60;;;15.88;66.44;101436.84;5036066;28;20195;-75
2023/07/07 01:12:55;;;;;;;3.50;3.20;;;16.10;96.50;;;15.84;66.46;101436.34;5035992;28;20191;-75
2023/07/07 01:15:32;;;;;;;5.60;3.47;;;16.10;96.40;;;15.85;66.30;101431.78;5035559;28;20663;-75
2023/07/07 01:18:24;;;;;;;4.73;3.37;;;16.10;96.20;;;15.75;66.15;101429.31;5035606;28;20717;-75
2023/07/07 01:21:09;;;;;;;4.73;3.20;;;16.00;96.30;;;15.72;66.70;101426.94;5035591;28;20188;-75
2023/07/07 01:24:19;;;;;;;4.50;3.00;;;16.10;96.60;;;15.67;66.93;101427.50;5035674;28;20288;-75
2023/07/07 01:27:15;;;;;;;3.90;3.03;;;16.10;96.80;;;15.65;67.12;101432.22;5035723;28;20226;-75
2023/07/07 01:30:30;;;;;;;3.57;2.97;;;15.80;97.50;;;15.64;66.90;101433.25;5035702;28;20281;-75
2023/07/07 01:33:06;;;;;;;4.70;3.00;;;16.00;96.50;;;15.58;66.98;101423.13;5035569;28;20183;-75
2023/07/07 01:35:38;;;;;;;5.57;3.77;;;15.90;97.00;;;15.54;67.54;101429.09;5035175;28;20235;-75
2023/07/07 01:38:32;;;;;;;4.17;3.30;;;15.80;97.30;;;15.56;67.37;101438.69;5035505;28;20270;-75
2023/07/07 01:41:14;;;;;;;3.33;2.70;;;15.80;97.20;;;15.54;67.43;101440.72;5035184;28;20638;-75
2023/07/07 01:43:56;;;;;;;4.53;3.20;;;15.90;97.40;;;15.40;67.70;101433.31;5035370;28;20214;-75
2023/07/07 01:46:37;;;;;;;5.47;3.53;;;15.60;97.70;;;15.36;67.97;101436.53;5035388;28;20614;-75
2023/07/07 01:49:19;;;;;;;5.00;2.97;;;15.60;97.70;;;15.30;68.06;101438.09;5034799;28;20226;-75
2023/07/07 01:52:00;;;;;;;5.67;3.47;;;15.60;98.20;;;15.24;68.52;101430.66;5035245;28;20198;-75
2023/07/07 01:54:37;;;;;;;6.07;3.20;;;15.50;98.10;;;15.22;68.46;101435.41;5035204;28;20227;-75
2023/07/07 01:57:12;;;;;;;5.97;3.40;;;15.50;98.20;;;15.09;68.20;101429.72;5035134;28;20283;-74
2023/07/07 01:59:45;;;;;;;3.63;3.20;;;15.40;98.30;;;15.15;68.13;101431.72;5035125;28;20270;-74
2023/07/07 02:02:19;;;;;;;7.50;3.70;;;15.40;98.50;;;15.08;68.86;101425.34;5035091;28;20567;-74
2023/07/07 02:04:51;;;;;;;5.63;3.47;;;15.30;98.60;;;15.10;68.62;101426.84;5034917;28;20230;-74
2023/07/07 02:07:23;;;;;;;6.67;3.60;;;15.40;98.40;;;15.13;68.45;101420.28;5034967;28;20203;-74
2023/07/07 02:09:55;;;;;;;4.73;3.30;;;15.40;98.30;;;15.19;67.49;101424.97;5034670;28;20744;-74
2023/07/07 02:12:27;;;;;;;4.27;3.00;;;15.60;98.10;;;15.23;68.26;101426.31;5034581;28;20196;-74
2023/07/07 02:14:59;;;;;;;5.90;3.20;;;15.60;98.20;;;15.22;67.45;101416.53;5034772;28;20353;-74
2023/07/07 02:17:32;;;;;;;4.27;3.07;;;15.70;98.10;;;15.18;67.98;101423.28;5034790;28;20532;-74
2023/07/07 02:20:06;;;;;;;5.40;3.60;;;15.50;98.30;;;15.13;68.64;101425.66;5034427;28;20637;-74
2023/07/07 02:22:39;;;;;;;5.30;3.40;;;15.40;98.30;;;15.04;68.35;101416.75;5034636;28;20191;-74
2023/07/07 02:25:12;;;;;;;4.10;3.70;;;15.40;98.20;;;15.00;68.52;101414.59;5034177;28;20746;-74
2023/07/07 02:27:44;;;;;;;4.63;3.37;;;15.30;98.50;;;15.02;68.47;101423.34;5034475;28;20195;-74
2023/07/07 02:30:17;;;;;;;4.13;3.00;;;15.40;98.50;;;15.05;68.78;101422.97;5034168;28;20300;-74
2023/07/07 02:32:50;;;;;;;3.77;3.00;;;15.40;98.50;;;14.97;68.63;101429.22;5034403;28;20282;-74
2023/07/07 02:35:23;;;;;;;4.40;3.00;;;15.40;98.60;;;14.87;69.18;101427.72;5033836;28;20716;-74
2023/07/07 02:37:55;;;;;;;6.07;3.13;;;15.10;99.00;;;14.86;68.86;101428.78;5034416;28;20195;-74
2023/07/07 02:40:27;;;;;;;5.10;3.00;;;15.10;99.00;;;14.81;69.70;101431.97;5034053;28;20187;-74
2023/07/07 02:42:59;;;;;;;4.37;3.33;;;15.10;99.20;;;14.77;69.54;101429.78;5034223;28;20285;-74
2023/07/07 02:45:31;;;;;;;6.30;3.40;;;15.20;99.10;;;14.75;69.47;101427.28;5034216;28;20259;-74
2023/07/07 02:48:05;;;;;;;4.90;3.47;;;15.10;99.20;;;14.69;69.81;101428.78;5034165;28;20190;-74
2023/07/07 02:50:37;;;;;;;6.40;3.50;;;15.10;99.60;;;14.64;69.80;101433.00;5033813;28;20594;-74
2023/07/07 02:53:08;;;;;;;3.50;3.20;;;15.10;99.70;;;14.63;70.57;101429.47;5033825;28;20665;-74
2023/07/07 02:55:40;;;;;;;4.03;3.63;;;15.00;99.90;;;14.63;70.27;101434.00;5034384;28;20233;-74
2023/07/07 02:58:12;;;;;;;4.93;3.33;;;15.00;99.80;;;14.65;70.04;101437.38;5034084;28;20288;-74
2023/07/07 03:00:44;;;;;;;4.63;3.30;;;15.10;99.90;;;14.58;70.59;101431.00;5033180;28;20202;-74
2023/07/07 03:03:19;;;;;;;3.90;3.37;;;14.90;99.90;;;14.54;70.56;101433.19;5033164;28;20207;-74
2023/07/07 03:05:52;;;;;;;5.40;3.90;;;14.90;99.90;;;14.55;70.33;101437.56;5033792;28;20638;-74
2023/07/07 03:08:24;;;;;;;4.43;3.70;;;14.90;99.90;;;14.51;70.34;101430.81;5033845;28;20290;-74
2023/07/07 03:10:56;;;;;;;5.33;3.60;;;14.90;99.90;;;14.48;71.22;101436.56;5033496;28;20191;-74
2023/07/07 03:13:28;;;;;;;4.30;3.17;;;14.90;99.90;;;14.43;70.89;101438.06;5033792;28;20221;-74
2023/07/07 03:16:06;;;;;;;3.90;3.50;;;14.80;99.90;;;14.41;71.52;101435.53;5033666;28;20231;-74
2023/07/07 03:18:41;;;;;;;3.57;3.13;;;14.90;99.90;;;14.35;71.61;101438.88;5033368;28;20195;-74
2023/07/07 03:21:13;;;;;;;4.43;3.47;;;14.90;99.90;;;14.38;71.43;101441.28;5033664;28;20243;-74
2023/07/07 03:23:47;;;;;;;4.37;3.20;;;14.80;99.90;;;14.42;71.12;101439.06;5033541;28;20207;-74
2023/07/07 03:26:22;;;;;;;6.07;3.57;;;14.90;99.90;;;14.48;70.86;101441.09;5033186;28;20763;-74
2023/07/07 03:28:55;;;;;;;6.33;3.53;;;14.90;99.90;;;14.44;71.24;101445.97;5033228;28;20361;-75
2023/07/07 03:31:31;;;;;;;6.43;3.70;;;14.90;99.90;;;14.39;70.32;101436.69;5033497;28;20223;-75
2023/07/07 03:34:07;;;;;;;6.30;3.70;;;14.80;99.90;;;14.46;71.28;101446.66;5033008;28;20209;-76
2023/07/07 03:36:41;;;;;;;5.30;3.67;;;14.90;99.90;;;14.37;71.02;101444.13;5033016;28;20187;-75
2023/07/07 03:39:13;;;;;;;5.60;3.30;;;14.80;99.90;;;14.35;70.64;101438.88;5033416;28;20229;-76
2023/07/07 03:41:45;;;;;;;9.67;3.97;;;14.70;99.90;;;14.34;70.98;101444.47;5033079;28;20645;-76
2023/07/07 03:44:17;;;;;;;5.37;3.60;;;14.80;99.90;;;14.19;72.76;101458.56;5033362;28;20215;-75
2023/07/07 03:46:50;;;;;;;4.93;3.50;;;14.60;99.90;;;14.20;72.19;101448.63;5033354;28;20290;-75
2023/07/07 03:49:24;;;;;;;4.47;3.50;;;14.60;99.90;;;14.15;72.71;101446.41;5033415;28;20191;-76
2023/07/07 03:51:56;;;;;;;5.70;4.10;;;14.60;99.90;;;14.22;72.50;101452.81;5033358;28;20195;-75
2023/07/07 03:54:28;;;;;;;5.27;3.57;;;14.60;99.90;;;14.20;71.78;101454.00;5033290;28;20250;-75
2023/07/07 03:56:59;;;;;;;5.23;3.60;;;14.70;99.90;;;14.28;72.40;101461.28;5033288;28;20270;-75
2023/07/07 03:59:31;;;;;;;4.40;3.40;;;14.70;99.90;;;14.31;72.50;101456.38;5033017;28;20663;-75
2023/07/07 04:02:03;;;;;;;5.43;3.73;;;14.80;99.90;;;14.35;72.90;101473.91;5032908;28;20198;-76
2023/07/07 04:04:36;;;;;;;5.67;3.17;;;14.90;99.90;;;14.31;72.67;101466.31;5032728;28;20235;-75
2023/07/07 04:07:08;;;;;;;5.23;3.33;;;14.80;99.90;;;14.29;72.85;101458.38;5033151;28;20277;-75
2023/07/07 04:09:40;;;;;;;5.83;3.40;;;14.70;99.90;;;14.30;72.89;101465.47;5033189;28;20234;-75
2023/07/07 04:12:13;;;;;;;4.53;3.33;;;14.80;99.90;;;14.25;73.07;101465.09;5036028;28;20337;-76
2023/07/07 04:14:45;;;;;;;4.20;3.03;;;14.70;99.90;;;14.28;73.82;101464.78;5037031;28;20225;-76
2023/07/07 04:17:17;;;;;;;7.73;3.60;;;14.80;99.90;;;14.27;73.37;101465.81;5037053;28;20230;-75
2023/07/07 04:19:50;;;;;;;4.30;3.63;;;14.70;99.90;;;14.25;73.41;101473.19;5037055;28;20201;-75
2023/07/07 04:22:22;;;;;;;6.20;3.27;;;14.80;99.90;;;14.30;73.38;101481.63;5036966;28;20286;-75
2023/07/07 04:25:12;;;;;;;6.53;3.50;;;14.90;99.90;;;14.31;73.53;101477.94;5036812;28;20254;-76
2023/07/07 04:27:45;;;;;;;8.43;3.60;;;14.80;99.90;;;14.28;73.16;101483.63;5036911;28;20257;-76
2023/07/07 04:30:17;;;;;;;6.90;3.60;;;14.70;99.90;;;14.25;73.85;101483.16;5036844;28;20616;-75
2023/07/07 04:32:49;;;;;;;7.23;3.70;;;14.70;99.90;;;14.26;73.91;101490.19;5036788;28;20269;-75
2023/07/07 04:35:22;;;;;;;5.13;3.50;;;14.70;99.90;;;14.24;73.88;101498.47;5036342;28;20242;-75
2023/07/07 04:37:54;;;;;;;6.37;3.67;;;14.70;99.90;;;14.22;73.92;101497.75;5036682;28;20274;-76
2023/07/07 04:40:26;;;;;;;6.20;3.37;;;14.70;99.90;;;14.17;73.93;101483.97;5036630;28;20191;-76
2023/07/07 04:42:58;;;;;;;8.93;3.63;;;14.70;99.90;;;14.17;74.21;101486.66;5036256;28;20191;-75
2023/07/07 04:45:33;;;;;;;8.00;3.47;;;14.60;99.90;;;14.17;74.49;101492.06;5036482;28;20659;-75
2023/07/07 04:48:05;;;;;;;5.77;3.10;;;14.70;99.90;;;14.13;74.31;101490.69;5036535;28;20195;-76
2023/07/07 04:50:38;;;;;;;5.27;3.40;;;14.60;99.90;;;14.16;74.51;101495.75;5036555;28;20187;-76
2023/07/07 04:53:10;;;;;;;5.33;3.33;;;14.60;99.90;;;14.13;74.19;101502.31;5036107;28;20637;-75
2023/07/07 04:55:46;;;;;;;7.70;3.10;;;14.60;99.90;;;14.17;74.07;101492.06;5036438;28;20661;-75
2023/07/07 04:58:18;;;;;;;8.97;3.63;;;14.70;99.90;;;14.20;74.16;101491.72;5036313;28;20191;-76
2023/07/07 05:00:52;;;;;;;5.83;3.17;;;14.70;99.90;;;14.21;74.65;101490.72;5036488;28;20265;-76
2023/07/07 05:03:24;;;;;;;8.13;3.40;;;14.70;99.90;;;14.25;74.59;101502.00;5036209;28;20285;-76
2023/07/07 05:05:59;;;;;;;9.87;3.63;;;14.80;99.90;;;14.24;75.49;101506.53;5036026;28;20239;-76
2023/07/07 05:08:32;;;;;;;9.33;3.57;;;14.80;99.90;;;14.28;75.53;101507.88;5035757;28;20562;-76
2023/07/07 05:11:05;;;;;;;4.90;3.40;;;14.90;99.90;;;14.31;74.69;101499.50;5036066;28;20191;-76
2023/07/07 05:13:37;;;;;;;7.63;3.40;;;14.90;99.90;;;14.35;75.09;101500.84;5035986;28;20191;-76
2023/07/07 05:16:12;;;;;;;5.87;3.27;;;14.90;99.90;;;14.38;75.42;101500.53;5036070;28;20313;-76
2023/07/07 05:18:44;;;;;;;7.17;3.30;;;15.00;99.90;;;14.40;75.50;101506.59;5035658;28;20326;-76
2023/07/07 05:21:21;;;;;;;4.23;2.97;;;15.10;99.90;;;14.45;75.22;101506.09;5035846;28;20198;-75
2023/07/07 05:23:54;;;;;;;5.23;3.30;;;15.00;99.90;;;14.47;74.86;101510.31;5034864;28;20191;-75
2023/07/07 05:26:30;;;;;;;6.30;3.77;;;15.10;99.90;;;14.52;75.77;101515.22;5035769;28;20305;-75
2023/07/07 05:29:06;;;;;;;10.57;3.60;;;15.20;99.90;;;14.54;76.80;101510.47;5035857;28;20218;-75
2023/07/07 05:31:40;;;;;;;7.20;3.23;;;15.20;99.90;;;14.58;77.48;101510.00;5035872;28;20187;-75
2023/07/07 05:34:13;;;;;;;5.77;3.10;;;15.20;99.90;;;14.61;76.72;101512.34;5035309;28;20556;-75
2023/07/07 05:36:46;;;;;;;8.87;3.53;;;15.20;99.90;;;14.65;76.70;101519.09;5035857;28;20278;-75
2023/07/07 05:39:18;;;;;;;12.23;3.73;;;15.40;99.90;;;14.69;76.73;101520.41;5035913;28;20282;-75
2023/07/07 05:41:53;;;;;;;6.03;3.10;;;15.30;99.90;;;14.75;76.79;101512.69;5036042;28;20286;-75
2023/07/07 05:44:24;;;;;;;8.57;3.20;;;15.40;99.90;;;14.78;76.43;101509.63;5035929;28;20258;-75
2023/07/07 05:46:56;;;;;;;6.30;3.13;;;15.40;99.90;;;14.85;77.00;101514.19;5035619;28;20253;-64
2023/07/07 05:49:28;;;;;;;13.23;3.20;;;15.50;99.90;;;14.89;76.99;101512.00;5035552;28;20230;-74
2023/07/07 05:52:02;;;;;;;10.40;3.50;;;15.50;99.90;;;14.91;77.18;101516.22;5035495;28;20191;-74
2023/07/07 05:54:35;;;;;;;13.50;3.77;;;15.60;99.90;;;14.95;77.14;101512.16;5035328;28;20269;-74
2023/07/07 05:57:08;;;;;;;8.83;3.80;;;15.60;99.90;;;14.99;76.66;101516.22;5035348;28;20274;-74
2023/07/07 05:59:40;;;;;;;8.13;3.20;;;15.60;99.90;;;15.06;77.25;101521.75;5035312;28;20277;-74
2023/07/07 06:02:12;;;;;;;12.37;3.27;;;15.70;99.90;;;15.10;77.18;101523.94;5035299;28;20370;-74
2023/07/07 06:04:44;;;;;;;9.97;3.10;;;15.80;99.90;;;15.17;76.71;101526.81;5035055;28;20279;-74
2023/07/07 06:07:17;;;;;;;9.00;3.53;;;15.90;99.90;;;15.22;76.52;101533.38;5035166;28;20290;-74
2023/07/07 06:09:57;;;;;;;8.57;3.10;;;15.90;99.90;;;15.28;76.93;101526.44;5035187;28;20187;-75
2023/07/07 06:12:29;;;;;;;5.87;3.10;;;16.00;99.90;;;15.35;76.28;101531.97;5035019;28;20194;-74
2023/07/07 06:15:01;;;;;;;9.13;3.10;;;16.00;99.90;;;15.43;75.23;101535.50;5035013;28;20233;-75
2023/07/07 06:17:33;;;;;;;7.60;3.00;;;16.30;99.90;;;15.50;74.91;101530.31;5035031;28;20602;-74
2023/07/07 06:20:05;;;;;;;9.77;3.03;;;16.20;99.90;;;15.58;74.75;101528.41;5034972;28;20214;-74
2023/07/07 06:22:39;;;;;;;10.20;3.70;;;16.30;99.90;;;15.71;73.74;101536.81;5034936;28;20274;-74
2023/07/07 06:25:14;;;;;;;11.47;2.73;;;16.50;99.90;;;15.74;72.22;101535.63;5034657;28;20332;-75
2023/07/07 06:27:46;;;;;;;8.10;2.90;;;16.50;99.90;;;15.83;72.66;101541.81;5034434;28;20277;-75
2023/07/07 06:30:18;;;;;;;7.13;2.87;;;16.60;99.90;;;15.88;73.02;101548.41;5034429;28;20626;-75
2023/07/07 06:32:50;;;;;;;7.30;2.60;;;16.60;99.90;;;15.98;72.68;101546.31;5034443;28;20637;-75
2023/07/07 06:35:21;;;;;;;5.93;2.47;;;16.70;99.90;;;16.03;71.98;101548.47;5034336;28;20230;-75
2023/07/07 06:37:54;;;;;;;6.43;2.40;;;16.80;99.90;;;16.08;68.77;101548.81;5034479;28;20286;-75
2023/07/07 06:40:26;;;;;;;9.03;2.83;;;16.90;99.40;;;16.25;67.77;101542.28;5034317;28;20198;-75
2023/07/07 06:42:58;;;;;;;5.93;2.80;;;17.00;98.40;;;16.25;69.05;101547.69;5034234;28;20281;-75
2023/07/07 06:45:34;;;;;;;4.23;2.60;;;17.10;99.50;;;16.30;68.57;101550.69;5033627;28;20637;-75
2023/07/07 06:48:05;;;;;;;7.27;2.77;;;17.10;99.00;;;16.56;69.02;101556.66;5034106;28;20202;-74
2023/07/07 06:50:41;;;;;;;19.07;15.87;;;17.30;98.60;;;16.55;68.16;101559.50;5034336;28;20206;-74
2023/07/07 06:53:14;;;;;;;6.07;5.10;;;17.30;98.70;;;16.61;67.01;101565.06;5034162;28;20289;-74
2023/07/07 06:55:46;;;;;;;4.70;4.13;;;17.40;98.70;;;17.01;63.08;101552.25;5034113;28;20314;-74
2023/07/07 06:58:18;;;;;;;8.07;3.13;;;17.80;96.40;;;17.43;60.64;101548.97;5033732;28;20561;-74
2023/07/07 07:00:50;;;;;;;5.40;2.70;;;18.00;94.80;;;17.40;59.06;101546.63;5034090;28;20281;-74
2023/07/07 07:03:22;;;;;;;4.73;2.33;;;18.10;94.10;;;17.40;60.34;101543.91;5034082;28;20191;-74
2023/07/07 07:05:55;;;;;;;10.23;4.83;;;18.10;94.30;;;17.27;62.78;101554.53;5033873;28;20226;-74
2023/07/07 07:08:28;;;;;;;9.27;6.57;;;18.00;95.80;;;17.23;64.03;101554.06;5033883;28;20230;-75
2023/07/07 07:11:00;;;;;;;7.23;2.43;;;18.00;96.20;;;17.37;61.47;101555.09;5033851;28;20278;-74
2023/07/07 07:13:31;;;;;;;13.37;3.20;;;18.10;95.00;;;17.53;61.11;101554.97;5033824;28;20219;-74
2023/07/07 07:16:03;;;;;;;3.83;2.40;;;18.20;94.90;;;17.62;62.34;101548.44;5033758;28;20314;-74
2023/07/07 07:18:35;;;;;;;4.93;3.17;;;18.40;95.60;;;17.57;62.31;101557.13;5033370;28;20680;-74
2023/07/07 07:21:07;;;;;;;3.33;2.40;;;18.30;95.80;;;17.56;64.09;101555.47;5033739;28;20282;-73
2023/07/07 07:23:41;;;;;;;3.63;2.80;;;18.40;96.20;;;17.62;64.21;101549.28;5033828;28;20187;-73
2023/07/07 07:26:13;;;;;;;6.37;2.30;;;18.40;96.10;;;17.67;63.52;101546.03;5033701;28;20300;-75
2023/07/07 07:28:45;;;;;;;3.80;2.77;;;18.40;96.00;;;17.71;64.02;101542.75;5033494;28;20711;-75
2023/07/07 07:31:17;;;;;;;3.50;2.63;;;18.50;96.00;;;17.77;63.35;101545.75;5033827;28;20195;-74
2023/07/07 07:33:54;;;;;;;3.60;3.00;;;18.60;95.70;;;17.88;63.73;101547.97;5033402;28;20556;-74
2023/07/07 07:36:26;;;;;;;4.73;3.30;;;18.70;95.70;;;17.98;61.74;101540.41;5033724;28;20214;-75
2023/07/07 07:38:59;;;;;;;3.90;2.60;;;18.70;95.00;;;18.01;63.03;101537.31;5033731;28;20290;-74
2023/07/07 07:41:31;;;;;;;3.03;2.63;;;18.80;95.20;;;18.15;62.41;101550.00;5033674;28;20273;-74
2023/07/07 07:44:03;;;;;;;4.27;2.33;;;18.90;95.10;;;18.41;58.18;101547.59;5033474;28;20245;-74
2023/07/07 07:46:35;;;;;;;3.30;2.40;;;19.10;93.10;;;18.56;58.96;101545.69;5032797;28;20257;-73
2023/07/07 07:49:07;;;;;;;3.23;2.43;;;19.30;93.20;;;18.48;60.09;101551.22;5033579;28;20195;-73
2023/07/07 07:51:40;;;;;;;5.20;2.57;;;19.30;93.90;;;18.50;60.94;101546.47;5033602;28;20201;-73
2023/07/07 07:54:18;;;;;;;5.37;2.63;;;19.30;94.10;;;18.54;61.20;101542.34;5033474;28;20305;-73
2023/07/07 07:56:50;;;;;;;6.10;2.70;;;19.30;94.50;;;18.61;62.43;101545.09;5033249;28;20700;-74
2023/07/07 07:59:22;;;;;;;4.40;2.60;;;19.40;94.90;;;18.73;59.33;101549.81;5033495;28;20281;-74
2023/07/07 08:01:54;;;;;;;3.13;2.40;;;19.40;93.60;;;19.01;56.37;101552.59;5033395;28;20206;-74
2023/07/07 08:04:26;;;;;;;4.03;2.20;;;19.70;92.10;;;18.98;59.20;101552.97;5033272;28;20232;-74
2023/07/07 08:06:59;;;;;;;3.33;2.47;;;19.70;93.10;;;19.12;57.73;101546.63;5033318;28;20297;-73
2023/07/07 08:09:32;;;;;;;2.83;2.40;;;19.80;92.70;;;19.33;56.32;101551.19;5033573;28;20197;-78
2023/07/07 08:12:08;;;;;;;4.07;2.50;;;20.00;92.10;;;19.39;56.50;101550.38;5033972;28;20210;-79
2023/07/07 08:14:40;;;;;;;4.40;2.20;;;20.10;92.00;;;19.47;57.45;101546.72;5035060;28;20222;-79
2023/07/07 08:17:14;;;;;;;6.83;2.73;;;20.20;92.30;;;19.73;55.51;101558.56;5034711;28;20246;-79
2023/07/07 08:19:47;;;;;;;3.97;2.07;;;20.30;91.30;;;19.67;55.90;101559.38;5035484;28;20187;-78
2023/07/07 08:22:22;;;;;;;20.57;3.50;;;20.40;91.90;;;19.73;55.90;101557.72;5036383;28;20282;-78
2023/07/07 08:24:58;;;;;;;6.67;2.73;;;20.50;91.50;;;19.72;57.31;101550.63;5036364;28;20385;-79
2023/07/07 08:27:30;;;;;;;4.63;2.33;;;20.50;92.30;;;19.80;57.58;101553.16;5035087;28;20249;-78
2023/07/07 08:30:06;;;;;;;4.03;2.23;;;20.50;92.50;;;19.91;57.37;101549.03;5037004;28;20271;-79
2023/07/07 08:32:38;;;;;;;4.90;2.30;;;20.60;92.60;;;19.95;58.70;101556.59;5035342;28;20234;-79
2023/07/07 08:35:12;;;;;;;7.53;6.77;;;20.70;92.80;;;20.03;57.08;101553.72;5035490;28;20235;-79
2023/07/07 08:37:44;;;;;;;81.00;71.73;;;20.80;92.40;;;20.13;57.40;101558.78;5035670;28;20596;-78
2023/07/07 08:40:25;;;;;;;9.53;8.60;;;20.80;92.20;;;20.24;54.39;101555.44;5036807;28;20219;-80
2023/07/07 08:42:57;;;;;;;8.17;7.30;;;20.90;90.60;;;20.38;55.02;101557.22;5035468;28;20202;-80
2023/07/07 08:45:30;;;;;;;7.83;6.67;;;21.10;90.90;;;20.44;55.41;101556.41;5034645;28;20237;-79
2023/07/07 08:48:21;;;;;;;22.47;4.00;;;21.10;92.00;;;20.66;51.58;101554.34;5036952;28;20219;-79
2023/07/07 08:51:01;;;;;;;10.30;8.03;;;21.30;88.10;;;20.83;50.35;101554.78;5039085;28;20282;-80
2023/07/07 08:53:52;;;;;;;4.27;3.57;;;21.50;87.60;;;20.92;51.08;101550.84;5037313;28;20250;-80
2023/07/07 08:56:44;;;;;;;15.03;11.43;;;21.60;86.90;;;20.94;52.96;101557.75;5038946;28;20246;-80
2023/07/07 08:59:30;;;;;;;3.57;2.80;;;21.60;89.10;;;21.09;50.81;101560.28;5040994;28;20207;-80
2023/07/07 09:02:13;;;;;;;6.50;3.90;;;21.80;86.10;;;21.21;50.54;101566.78;5042248;28;20223;-80
2023/07/07 09:05:02;;;;;;;5.60;3.20;;;21.90;85.40;;;21.27;51.30;101555.03;5039440;28;20262;-80
2023/07/07 09:07:54;;;;;;;6.90;3.00;;;22.00;86.60;;;21.30;51.08;101557.38;5038901;28;20322;-80
2023/07/07 09:10:42;;;;;;;7.30;5.13;;;22.00;85.70;;;21.47;50.26;101558.56;5040874;28;20201;-80
2023/07/07 09:13:22;;;;;;;5.13;3.93;;;22.20;84.30;;;21.53;50.43;101557.75;5042258;28;20188;-80
2023/07/07 09:16:08;;;;;;;3.10;2.37;;;22.20;85.20;;;21.56;50.92;101557.31;5041456;28;20226;-80
2023/07/07 09:18:49;;;;;;;4.10;3.20;;;22.20;85.80;;;21.69;50.10;101556.44;5040937;28;20187;-80
2023/07/07 09:21:35;;;;;;;6.63;2.63;;;22.30;84.10;;;21.92;45.80;101553.28;5043089;28;20221;-81
2023/07/07 09:24:17;;;;;;;4.60;3.53;;;22.60;79.30;;;21.91;49.05;101554.34;5040697;28;20646;-64
2023/07/07 09:26:56;;;;;;;8.20;4.87;;;22.60;83.10;;;22.02;49.77;101556.41;5035926;28;20245;-74
2023/07/07 09:29:32;;;;;;;6.33;4.80;;;22.70;83.90;;;22.10;49.00;101553.41;5036017;28;20219;-74
2023/07/07 09:32:05;;;;;;;4.80;2.83;;;22.80;82.80;;;22.33;45.72;101553.72;5035936;28;20282;-75
2023/07/07 09:34:37;;;;;;;5.60;3.40;;;22.90;77.50;;;22.42;45.46;101560.63;5035404;28;20242;-75
2023/07/07 09:37:19;;;;;;;3.87;2.60;;;23.10;77.40;;;22.65;42.27;101560.88;5035796;28;20209;-74
2023/07/07 09:40:10;;;;;;;8.37;6.37;;;23.30;72.90;;;22.73;42.82;101554.38;5035484;28;20282;-75
2023/07/07 09:42:55;;;;;;;5.03;2.70;;;23.40;73.20;;;22.71;45.23;101561.91;5035800;28;20224;-75
2023/07/07 09:45:40;;;;;;;5.83;4.30;;;23.30;76.00;;;22.85;45.30;101557.22;5035294;28;20720;-74
2023/07/07 09:48:27;;;;;;;3.40;2.97;;;23.50;77.70;;;22.98;43.15;101551.66;5035639;28;20221;-74
2023/07/07 09:51:08;;;;;;;6.27;3.20;;;23.60;74.60;;;23.12;42.45;101566.88;5035550;28;20282;-75
2023/07/07 09:53:45;;;;;;;4.80;3.53;;;23.80;72.20;;;23.35;40.21;101552.59;5035609;28;20282;-75
2023/07/07 09:56:25;;;;;;;5.20;2.60;;;23.90;70.10;;;23.55;40.64;101565.03;5035463;28;20230;-74
2023/07/07 09:59:06;;;;;;;6.17;4.87;;;24.10;67.70;;;23.61;41.34;101558.66;5035496;28;20606;-74
2023/07/07 10:01:49;;;;;;;4.43;3.07;;;24.20;70.90;;;23.58;42.66;101553.66;5035372;28;20191;-75
2023/07/07 10:04:24;;;;;;;3.03;2.73;;;24.10;72.20;;;23.81;39.51;101563.06;5035009;28;20724;-74
2023/07/07 10:07:03;;;;;;;5.17;2.53;;;24.30;68.40;;;23.92;39.30;101559.59;5035255;28;20198;-74
2023/07/07 10:09:35;;;;;;;4.53;2.97;;;24.40;67.70;;;23.99;39.08;101560.34;5034498;28;20763;-74
2023/07/07 10:12:11;;;;;;;3.10;2.80;;;24.50;67.60;;;23.97;40.36;101557.88;5034920;28;20281;-74
2023/07/07 10:14:59;;;;;;;3.97;2.37;;;24.40;69.00;;;24.09;37.38;101555.16;5035065;28;20222;-74
2023/07/07 10:17:51;;;;;;;5.17;4.57;;;24.60;65.40;;;24.08;41.71;101567.16;5035105;28;20257;-74
2023/07/07 10:20:24;;;;;;;4.40;3.40;;;24.60;71.30;;;24.13;42.04;101562.75;5034711;28;20747;-74
2023/07/07 10:22:56;;;;;;;3.03;2.50;;;24.60;72.10;;;24.18;40.50;101559.28;5035034;28;20291;-74
2023/07/07 10:25:30;;;;;;;3.13;2.80;;;24.70;68.30;;;24.20;39.42;101548.97;5034883;28;20254;-74
2023/07/07 10:28:02;;;;;;;3.17;2.50;;;24.70;66.50;;;24.51;37.89;101548.75;5034892;28;20241;-74
2023/07/07 10:30:36;;;;;;;8.60;3.60;;;24.90;65.10;;;24.58;40.94;101554.13;5034811;28;20277;-74
2023/07/07 10:33:12;;;;;;;2.90;2.70;;;25.00;69.10;;;24.67;37.32;101558.19;5034697;28;20187;-74
2023/07/07 10:35:45;;;;;;;3.73;2.40;;;25.10;63.80;;;24.78;35.73;101556.56;5034330;28;20269;-74
2023/07/07 10:38:16;;;;;;;23.37;20.97;;;25.20;62.30;;;24.73;38.67;101558.09;5034717;28;20281;-76
2023/07/07 10:40:49;;;;;;;2.65;2.30;;;25.10;64.70;;;24.82;35.07;101544.91;5034656;28;20274;-75
2023/07/07 10:43:23;;;;;;;13.93;12.50;;;25.20;59.90;;;24.89;38.20;101545.69;5034630;28;20194;-75
2023/07/07 10:45:55;;;;;;;11.13;9.70;;;25.30;64.00;;;25.02;38.17;101544.63;5034454;28;20257;-75